createdAt,value
2023-09-26T00:00:25.011Z,98616.78
2023-09-26T00:02:54.280Z,98613.97
2023-09-26T00:05:24.553Z,98608.94
2023-09-26T00:07:53.120Z,98608.25
2023-09-26T00:10:21.589Z,98602.63
2023-09-26T00:12:49.633Z,98605.91
2023-09-26T00:15:17.302Z,98601.81
2023-09-26T00:17:45.295Z,98599.59
2023-09-26T00:20:20.177Z,98597.50
2023-09-26T00:22:48.007Z,98597.72
2023-09-26T00:25:16.088Z,98595.06
2023-09-26T00:27:43.972Z,98604.38
2023-09-26T00:30:11.601Z,98603.81
2023-09-26T00:32:40.292Z,98603.19
2023-09-26T00:35:13.355Z,98606.13
2023-09-26T00:37:43.426Z,98609.63
2023-09-26T00:40:13.854Z,98609.38
2023-09-26T00:42:41.660Z,98605.66
2023-09-26T00:45:09.445Z,98599.13
2023-09-26T00:47:38.053Z,98602.91
2023-09-26T00:50:12.789Z,98597.53
2023-09-26T00:52:46.965Z,98603.91
2023-09-26T00:55:16.013Z,98605.91
2023-09-26T00:57:44.443Z,98606.25
2023-09-26T01:00:14.561Z,98608.47
2023-09-26T01:02:43.175Z,98600.78
2023-09-26T01:05:10.782Z,98600.78
2023-09-26T01:07:39.639Z,98601.72
2023-09-26T01:10:08.632Z,98596.13
2023-09-26T01:12:37.705Z,98602.09
2023-09-26T01:15:06.745Z,98594.94
2023-09-26T01:17:34.395Z,98589.72
2023-09-26T01:20:02.459Z,98586.81
2023-09-26T01:22:32.304Z,98587.84
2023-09-26T01:25:00.913Z,98585.63
2023-09-26T01:27:28.545Z,98583.31
2023-09-26T01:29:56.606Z,98584.31
2023-09-26T01:32:24.381Z,98581.72
2023-09-26T01:34:53.340Z,98584.69
2023-09-26T01:37:21.895Z,98581.28
2023-09-26T01:39:49.409Z,98583.28
2023-09-26T01:42:16.976Z,98584.69
2023-09-26T01:44:44.474Z,98583.97
2023-09-26T01:47:19.586Z,98580.72
2023-09-26T01:49:47.517Z,98577.44
2023-09-26T01:52:15.126Z,98576.13
2023-09-26T01:54:42.883Z,98571.38
2023-09-26T01:57:10.433Z,98567.88
2023-09-26T01:59:37.989Z,98575.44
2023-09-26T02:02:05.582Z,98562.66
2023-09-26T02:04:33.237Z,98567.53
2023-09-26T02:07:00.722Z,98572.19
2023-09-26T02:09:28.387Z,98572.91
2023-09-26T02:11:56.267Z,98575.34
2023-09-26T02:14:23.812Z,98570.91
2023-09-26T02:16:51.458Z,98563.56
2023-09-26T02:19:19.191Z,98570.91
2023-09-26T02:21:47.155Z,98558.81
2023-09-26T02:24:14.777Z,98562.88
2023-09-26T02:26:42.853Z,98556.22
2023-09-26T02:29:10.578Z,98562.31
2023-09-26T02:31:38.086Z,98560.44
2023-09-26T02:34:07.405Z,98570.47
2023-09-26T02:36:34.946Z,98562.88
2023-09-26T02:39:02.509Z,98564.28
2023-09-26T02:41:30.102Z,98573.94
2023-09-26T02:44:00.006Z,98576.41
2023-09-26T02:46:27.794Z,98564.16
2023-09-26T02:48:55.425Z,98567.09
2023-09-26T02:51:22.989Z,98565.38
2023-09-26T02:53:50.704Z,98570.13
2023-09-26T02:56:18.619Z,98559.53
2023-09-26T02:58:46.125Z,98565.72
2023-09-26T03:01:18.269Z,98569.53
2023-09-26T03:03:46.093Z,98562.09
2023-09-26T03:06:13.648Z,98569.19
2023-09-26T03:08:41.432Z,98564.88
2023-09-26T03:11:08.916Z,98561.72
2023-09-26T03:13:36.593Z,98571.16
2023-09-26T03:16:05.827Z,98572.91
2023-09-26T03:18:33.514Z,98573.84
2023-09-26T03:21:06.595Z,98572.66
2023-09-26T03:23:35.050Z,98567.22
2023-09-26T03:26:02.584Z,98567.78
2023-09-26T03:28:30.223Z,98568.59
2023-09-26T03:30:57.857Z,98566.28
2023-09-26T03:33:25.695Z,98560.44
2023-09-26T03:35:53.236Z,98560.66
2023-09-26T03:38:22.324Z,98554.00
2023-09-26T03:41:00.405Z,98557.41
2023-09-26T03:43:28.337Z,98563.72
2023-09-26T03:46:07.815Z,98557.75
2023-09-26T03:48:36.500Z,98558.44
2023-09-26T03:51:15.050Z,98555.41
2023-09-26T03:53:43.774Z,98556.47
2023-09-26T03:56:11.393Z,98556.09
2023-09-26T03:58:39.555Z,98550.16
2023-09-26T04:01:16.021Z,98548.19
2023-09-26T04:03:47.736Z,98539.53
2023-09-26T04:06:18.251Z,98543.63
2023-09-26T04:08:47.159Z,98538.16
2023-09-26T04:11:18.918Z,98538.16
2023-09-26T04:13:46.625Z,98537.81
2023-09-26T04:16:14.250Z,98536.75
2023-09-26T04:18:41.835Z,98544.34
2023-09-26T04:21:12.153Z,98542.81
2023-09-26T04:23:40.513Z,98538.28
2023-09-26T04:26:16.082Z,98535.84
2023-09-26T04:28:45.088Z,98534.31
2023-09-26T04:31:20.423Z,98534.91
2023-09-26T04:33:51.843Z,98545.16
2023-09-26T04:36:19.831Z,98534.56
2023-09-26T04:38:48.051Z,98539.81
2023-09-26T04:41:15.726Z,98531.91
2023-09-26T04:43:43.517Z,98540.50
2023-09-26T04:46:15.399Z,98539.69
2023-09-26T04:48:44.976Z,98537.34
2023-09-26T04:51:15.874Z,98537.34
2023-09-26T04:53:43.840Z,98543.56
2023-09-26T04:56:11.549Z,98547.03
2023-09-26T04:58:39.594Z,98550.75
2023-09-26T05:01:15.836Z,98540.88
2023-09-26T05:03:44.591Z,98542.97
2023-09-26T05:06:13.345Z,98544.72
2023-09-26T05:08:41.986Z,98538.63
2023-09-26T05:11:18.356Z,98541.03
2023-09-26T05:13:46.163Z,98545.56
2023-09-26T05:16:16.132Z,98542.03
2023-09-26T05:18:43.926Z,98538.41
2023-09-26T05:21:13.058Z,98550.31
2023-09-26T05:23:40.862Z,98539.34
2023-09-26T05:26:10.577Z,98542.25
2023-09-26T05:28:38.792Z,98535.06
2023-09-26T05:31:06.958Z,98540.59
2023-09-26T05:33:34.542Z,98533.97
2023-09-26T05:36:02.082Z,98533.16
2023-09-26T05:38:29.839Z,98533.91
2023-09-26T05:40:57.513Z,98532.44
2023-09-26T05:43:25.105Z,98530.47
2023-09-26T05:45:52.949Z,98544.88
2023-09-26T05:48:21.153Z,98544.44
2023-09-26T05:50:48.740Z,98545.66
2023-09-26T05:53:16.421Z,98538.13
2023-09-26T05:55:43.854Z,98548.13
2023-09-26T05:58:11.606Z,98550.66
2023-09-26T06:00:39.219Z,98543.53
2023-09-26T06:03:07.055Z,98541.81
2023-09-26T06:05:37.792Z,98538.09
2023-09-26T06:08:05.731Z,98538.81
2023-09-26T06:10:33.370Z,98534.88
2023-09-26T06:13:01.491Z,98538.50
2023-09-26T06:15:29.354Z,98535.81
2023-09-26T06:18:01.272Z,98536.41
2023-09-26T06:20:29.654Z,98540.69
2023-09-26T06:22:57.936Z,98536.84
2023-09-26T06:25:25.577Z,98531.00
2023-09-26T06:27:53.458Z,98539.22
2023-09-26T06:30:21.115Z,98529.53
2023-09-26T06:32:48.763Z,98529.78
2023-09-26T06:35:16.349Z,98529.72
2023-09-26T06:37:43.826Z,98527.75
2023-09-26T06:40:12.057Z,98520.75
2023-09-26T06:42:40.510Z,98523.19
2023-09-26T06:45:09.522Z,98525.91
2023-09-26T06:47:37.161Z,98524.56
2023-09-26T06:50:06.558Z,98523.50
2023-09-26T06:52:34.950Z,98521.31
2023-09-26T06:55:04.320Z,98523.75
2023-09-26T06:57:31.905Z,98525.63
2023-09-26T07:00:00.836Z,98518.38
2023-09-26T07:02:28.392Z,98518.69
2023-09-26T07:04:57.838Z,98514.88
2023-09-26T07:07:25.609Z,98523.84
2023-09-26T07:09:53.241Z,98532.22
2023-09-26T07:12:20.824Z,98524.63
2023-09-26T07:14:49.135Z,98521.91
2023-09-26T07:17:16.817Z,98520.50
2023-09-26T07:19:44.317Z,98524.00
2023-09-26T07:22:11.958Z,98526.38
2023-09-26T07:24:49.783Z,98527.72
2023-09-26T07:27:19.522Z,98516.59
2023-09-26T07:29:48.431Z,98519.22
2023-09-26T07:32:16.988Z,98513.72
2023-09-26T07:34:44.587Z,98522.00
2023-09-26T07:37:13.567Z,98515.00
2023-09-26T07:39:46.386Z,98517.75
2023-09-26T07:42:14.025Z,98518.03
2023-09-26T07:44:41.576Z,98523.22
2023-09-26T07:47:09.661Z,98519.34
2023-09-26T07:49:37.269Z,98518.13
2023-09-26T07:52:05.439Z,98522.34
2023-09-26T07:54:33.722Z,98516.88
2023-09-26T07:57:01.317Z,98525.44
2023-09-26T07:59:28.966Z,98522.97
2023-09-26T08:01:56.565Z,98528.16
2023-09-26T08:04:24.861Z,98527.97
2023-09-26T08:06:52.538Z,98522.72
2023-09-26T08:09:20.022Z,98534.28
2023-09-26T08:11:47.855Z,98528.91
2023-09-26T08:14:15.388Z,98539.69
2023-09-26T08:16:43.020Z,98538.81
2023-09-26T08:19:10.628Z,98530.31
2023-09-26T08:21:38.341Z,98527.53
2023-09-26T08:24:06.141Z,98525.00
2023-09-26T08:26:33.853Z,98525.84
2023-09-26T08:29:01.623Z,98529.50
2023-09-26T08:31:29.260Z,98524.63
2023-09-26T08:33:56.992Z,98522.06
2023-09-26T08:36:24.824Z,98516.09
2023-09-26T08:38:52.861Z,98519.47
2023-09-26T08:41:21.685Z,98520.50
2023-09-26T08:46:18.649Z,98518.56
2023-09-26T08:48:47.531Z,98514.50
2023-09-26T08:51:15.346Z,98514.69
2023-09-26T08:53:42.868Z,98508.97
2023-09-26T08:56:10.496Z,98509.56
2023-09-26T08:58:41.926Z,98509.16
2023-09-26T09:01:09.982Z,98506.28
2023-09-26T09:03:37.676Z,98497.13
2023-09-26T09:06:06.315Z,98500.13
2023-09-26T09:08:33.978Z,98497.88
2023-09-26T09:11:01.638Z,98498.44
2023-09-26T09:13:34.661Z,98500.81
2023-09-26T09:16:20.133Z,98494.94
2023-09-26T09:19:01.123Z,98498.78
2023-09-26T09:21:35.621Z,98491.84
2023-09-26T09:24:14.002Z,98493.94
2023-09-26T09:26:42.352Z,98492.69
2023-09-26T09:29:24.510Z,98494.38
2023-09-26T09:31:53.311Z,98486.34
2023-09-26T09:34:23.162Z,98483.88
2023-09-26T09:36:51.709Z,98478.88
2023-09-26T09:39:21.061Z,98480.84
2023-09-26T09:41:48.977Z,98471.41
2023-09-26T09:44:16.579Z,98468.59
2023-09-26T09:46:44.722Z,98470.28
2023-09-26T09:49:15.706Z,98476.06
2023-09-26T09:51:46.132Z,98473.13
2023-09-26T09:54:15.697Z,98470.09
2023-09-26T09:56:47.620Z,98472.69
2023-09-26T09:59:17.998Z,98464.44
2023-09-26T10:01:51.496Z,98466.75
2023-09-26T10:04:20.716Z,98454.59
2023-09-26T10:06:49.022Z,98456.25
2023-09-26T10:09:21.769Z,98451.63
2023-09-26T10:11:52.689Z,98450.41
2023-09-26T10:14:25.219Z,98447.94
2023-09-26T10:16:55.848Z,98446.59
2023-09-26T10:19:42.131Z,98448.44
2023-09-26T10:22:21.762Z,98439.25
2023-09-26T10:24:51.662Z,98441.25
2023-09-26T10:27:59.394Z,98446.75
2023-09-26T10:30:29.773Z,98450.31
2023-09-26T10:32:57.952Z,98438.84
2023-09-26T10:35:27.503Z,98436.44
2023-09-26T10:38:24.750Z,98432.38
2023-09-26T10:40:52.726Z,98432.81
2023-09-26T10:45:51.014Z,98434.16
2023-09-26T10:51:09.748Z,98430.66
2023-09-26T10:53:38.050Z,98431.16
2023-09-26T10:56:06.272Z,98423.19
2023-09-26T11:01:22.521Z,98419.47
2023-09-26T11:03:50.307Z,98426.25
2023-09-26T11:06:18.421Z,98413.91
2023-09-26T11:08:46.134Z,98416.53
2023-09-26T11:11:17.664Z,98414.53
2023-09-26T11:13:45.534Z,98405.56
2023-09-26T11:16:13.418Z,98410.69
2023-09-26T11:18:41.202Z,98412.88
2023-09-26T11:21:24.116Z,98408.81
2023-09-26T11:23:54.908Z,98412.50
2023-09-26T11:26:22.500Z,98405.97
2023-09-26T11:28:50.911Z,98407.78
2023-09-26T11:31:18.874Z,98409.38
2023-09-26T11:33:47.199Z,98405.44
2023-09-26T11:36:15.499Z,98402.31
2023-09-26T11:38:50.455Z,98406.44
2023-09-26T11:41:22.517Z,98408.44
2023-09-26T11:43:57.305Z,98406.53
2023-09-26T11:46:27.012Z,98408.94
2023-09-26T11:48:54.628Z,98394.88
2023-09-26T11:51:22.236Z,98395.81
2023-09-26T11:53:50.321Z,98389.41
2023-09-26T11:56:17.908Z,98389.34
2023-09-26T11:58:46.722Z,98387.22
2023-09-26T12:01:14.684Z,98378.88
2023-09-26T12:03:42.250Z,98387.56
2023-09-26T12:06:09.852Z,98382.63
2023-09-26T12:08:37.677Z,98385.88
2023-09-26T12:11:05.664Z,98384.94
2023-09-26T12:13:33.415Z,98382.16
2023-09-26T12:16:01.109Z,98379.31
2023-09-26T12:18:28.769Z,98370.00
2023-09-26T12:20:57.456Z,98376.81
2023-09-26T12:23:28.317Z,98372.13
2023-09-26T12:25:57.415Z,98373.84
2023-09-26T12:28:25.002Z,98381.22
2023-09-26T12:30:53.625Z,98371.50
2023-09-26T12:33:22.845Z,98374.38
2023-09-26T12:35:50.484Z,98362.56
2023-09-26T12:38:19.001Z,98354.16
2023-09-26T12:40:46.728Z,98356.31
2023-09-26T12:43:14.374Z,98355.28
2023-09-26T12:45:42.216Z,98357.72
2023-09-26T12:48:09.728Z,98357.09
2023-09-26T12:50:37.476Z,98348.44
2023-09-26T12:53:05.383Z,98355.16
2023-09-26T12:55:32.992Z,98351.81
2023-09-26T12:58:00.578Z,98350.81
2023-09-26T13:00:28.129Z,98353.97
2023-09-26T13:02:55.867Z,98353.47
2023-09-26T13:05:23.560Z,98349.25
2023-09-26T13:07:51.072Z,98344.41
2023-09-26T13:10:18.766Z,98343.16
2023-09-26T13:12:46.263Z,98331.78
2023-09-26T13:15:14.017Z,98342.19
2023-09-26T13:17:42.015Z,98336.44
2023-09-26T13:20:12.579Z,98334.53
2023-09-26T13:22:40.460Z,98334.50
2023-09-26T13:25:08.834Z,98335.91
2023-09-26T13:27:36.483Z,98334.31
2023-09-26T13:30:06.025Z,98327.44
2023-09-26T13:32:33.956Z,98333.09
2023-09-26T13:35:05.216Z,98323.63
2023-09-26T13:37:33.125Z,98329.56
2023-09-26T13:40:00.841Z,98330.88
2023-09-26T13:42:28.467Z,98330.34
2023-09-26T13:44:56.056Z,98330.06
2023-09-26T13:47:23.825Z,98328.44
2023-09-26T13:49:51.395Z,98327.31
2023-09-26T13:52:19.020Z,98326.00
2023-09-26T13:54:46.568Z,98324.72
2023-09-26T13:57:15.362Z,98325.41
2023-09-26T13:59:43.167Z,98330.97
2023-09-26T14:02:11.031Z,98324.81
2023-09-26T14:04:51.916Z,98329.22
2023-09-26T14:07:26.436Z,98323.50
2023-09-26T14:09:53.946Z,98323.59
2023-09-26T14:12:21.604Z,98318.47
2023-09-26T14:14:49.141Z,98321.28
2023-09-26T14:17:17.689Z,98321.75
2023-09-26T14:19:45.240Z,98311.59
2023-09-26T14:22:12.869Z,98313.22
2023-09-26T14:24:50.975Z,98316.34
2023-09-26T14:27:19.696Z,98318.25
2023-09-26T14:29:47.178Z,98315.31
2023-09-26T14:32:15.037Z,98318.72
2023-09-26T14:34:42.828Z,98317.28
2023-09-26T14:37:10.601Z,98320.44
2023-09-26T14:39:38.136Z,98316.22
2023-09-26T14:42:05.771Z,98316.03
2023-09-26T14:44:33.333Z,98320.47
2023-09-26T14:47:01.161Z,98314.63
2023-09-26T14:49:29.499Z,98317.22
2023-09-26T14:51:57.148Z,98313.78
2023-09-26T14:54:24.793Z,98311.84
2023-09-26T14:56:52.444Z,98313.09
2023-09-26T14:59:20.054Z,98318.28
2023-09-26T15:01:47.683Z,98319.38
2023-09-26T15:04:15.245Z,98311.81
2023-09-26T15:06:42.839Z,98307.66
2023-09-26T15:09:10.377Z,98310.28
2023-09-26T15:11:38.126Z,98307.06
2023-09-26T15:14:05.682Z,98315.28
2023-09-26T15:16:33.350Z,98305.13
2023-09-26T15:19:00.940Z,98301.53
2023-09-26T15:21:28.814Z,98301.78
2023-09-26T15:23:56.286Z,98298.28
2023-09-26T15:26:24.008Z,98304.56
2023-09-26T15:28:51.801Z,98294.28
2023-09-26T15:31:20.425Z,98298.06
2023-09-26T15:33:48.630Z,98299.13
2023-09-26T15:36:17.180Z,98295.78
2023-09-26T15:38:45.115Z,98295.78
2023-09-26T15:41:16.492Z,98292.16
2023-09-26T15:43:46.482Z,98295.47
2023-09-26T15:46:14.273Z,98291.34
2023-09-26T15:48:41.849Z,98292.97
2023-09-26T15:51:12.103Z,98294.19
2023-09-26T15:53:42.137Z,98299.03
2023-09-26T15:56:09.816Z,98294.66
2023-09-26T15:58:38.110Z,98296.31
2023-09-26T16:01:06.600Z,98301.75
2023-09-26T16:03:35.073Z,98301.53
2023-09-26T16:06:03.763Z,98302.44
2023-09-26T16:08:31.385Z,98299.50
2023-09-26T16:10:59.163Z,98302.13
2023-09-26T16:13:27.766Z,98304.28
2023-09-26T16:15:55.358Z,98309.00
2023-09-26T16:18:22.904Z,98302.84
2023-09-26T16:20:50.398Z,98304.22
2023-09-26T16:23:17.931Z,98302.88
2023-09-26T16:25:45.540Z,98314.09
2023-09-26T16:28:13.076Z,98312.25
2023-09-26T16:30:40.696Z,98314.19
2023-09-26T16:33:08.272Z,98311.31
2023-09-26T16:35:35.932Z,98316.47
2023-09-26T16:38:03.586Z,98314.34
2023-09-26T16:40:31.977Z,98316.59
2023-09-26T16:42:59.566Z,98315.31
2023-09-26T16:45:28.740Z,98318.34
2023-09-26T16:47:56.424Z,98309.97
2023-09-26T16:50:24.219Z,98309.00
2023-09-26T16:52:52.079Z,98310.44
2023-09-26T16:55:19.969Z,98316.47
2023-09-26T16:57:47.858Z,98314.09
2023-09-26T17:00:15.968Z,98310.84
2023-09-26T17:02:43.641Z,98311.38
2023-09-26T17:05:11.420Z,98308.69
2023-09-26T17:07:38.961Z,98312.78
2023-09-26T17:10:08.322Z,98313.34
2023-09-26T17:12:35.854Z,98316.34
2023-09-26T17:15:03.641Z,98317.72
2023-09-26T17:17:31.905Z,98316.94
2023-09-26T17:20:05.461Z,98315.66
2023-09-26T17:22:33.914Z,98316.78
2023-09-26T17:25:01.853Z,98323.03
2023-09-26T17:27:29.696Z,98316.03
2023-09-26T17:29:57.366Z,98319.84
2023-09-26T17:32:25.987Z,98321.50
2023-09-26T17:34:53.666Z,98321.28
2023-09-26T17:37:21.692Z,98318.34
2023-09-26T17:39:49.235Z,98321.13
2023-09-26T17:42:16.877Z,98318.47
2023-09-26T17:44:44.316Z,98313.91
2023-09-26T17:47:12.146Z,98313.09
2023-09-26T17:49:39.729Z,98324.22
2023-09-26T17:52:07.264Z,98315.81
2023-09-26T17:54:34.802Z,98319.91
2023-09-26T17:57:02.400Z,98320.19
2023-09-26T17:59:30.032Z,98320.22
2023-09-26T18:01:57.808Z,98315.34
2023-09-26T18:04:25.530Z,98320.22
2023-09-26T18:06:53.111Z,98322.91
2023-09-26T18:09:21.048Z,98332.38
2023-09-26T18:11:48.624Z,98330.47
2023-09-26T18:14:16.419Z,98331.56
2023-09-26T18:16:44.049Z,98333.22
2023-09-26T18:19:11.675Z,98336.72
2023-09-26T18:21:39.208Z,98336.19
2023-09-26T18:24:06.777Z,98333.75
2023-09-26T18:26:34.319Z,98334.56
2023-09-26T18:29:02.292Z,98340.22
2023-09-26T18:31:30.106Z,98334.59
2023-09-26T18:33:57.664Z,98338.66
2023-09-26T18:36:25.423Z,98335.09
2023-09-26T18:38:52.885Z,98340.25
2023-09-26T18:41:21.996Z,98341.88
2023-09-26T18:43:49.857Z,98351.88
2023-09-26T18:46:17.450Z,98356.75
2023-09-26T18:48:45.040Z,98355.41
2023-09-26T18:51:12.782Z,98358.91
2023-09-26T18:53:40.401Z,98360.53
2023-09-26T18:56:10.234Z,98364.81
2023-09-26T18:58:37.878Z,98365.91
2023-09-26T19:01:05.431Z,98359.69
2023-09-26T19:03:33.282Z,98358.09
2023-09-26T19:06:04.246Z,98374.00
2023-09-26T19:08:32.391Z,98372.13
2023-09-26T19:11:00.470Z,98372.38
2023-09-26T19:13:28.202Z,98376.19
2023-09-26T19:15:56.180Z,98367.50
2023-09-26T19:18:23.856Z,98364.03
2023-09-26T19:20:51.541Z,98374.00
2023-09-26T19:23:19.300Z,98366.16
2023-09-26T19:25:46.877Z,98365.63
2023-09-26T19:28:16.298Z,98366.16
2023-09-26T19:30:47.462Z,98366.72
2023-09-26T19:33:15.224Z,98364.00
2023-09-26T19:35:42.840Z,98365.59
2023-09-26T19:38:10.492Z,98361.81
2023-09-26T19:40:38.081Z,98362.06
2023-09-26T19:43:07.649Z,98358.78
2023-09-26T19:45:38.630Z,98356.88
2023-09-26T19:48:07.243Z,98354.72
2023-09-26T19:50:34.905Z,98366.06
2023-09-26T19:53:02.558Z,98357.13
2023-09-26T19:55:30.171Z,98352.22
2023-09-26T19:57:58.619Z,98354.59
2023-09-26T20:00:26.163Z,98347.84
2023-09-26T20:02:53.837Z,98358.66
2023-09-26T20:05:21.584Z,98348.16
2023-09-26T20:07:49.242Z,98351.13
2023-09-26T20:10:16.814Z,98347.91
2023-09-26T20:12:45.533Z,98344.94
2023-09-26T20:15:23.131Z,98350.03
2023-09-26T20:17:52.321Z,98355.66
2023-09-26T20:20:20.353Z,98353.25
2023-09-26T20:22:50.092Z,98351.88
2023-09-26T20:25:18.477Z,98351.56
2023-09-26T20:27:46.448Z,98358.34
2023-09-26T20:30:14.280Z,98356.41
2023-09-26T20:32:41.957Z,98362.88
2023-09-26T20:35:09.988Z,98363.69
2023-09-26T20:37:37.594Z,98364.78
2023-09-26T20:40:05.685Z,98363.41
2023-09-26T20:42:33.258Z,98356.66
2023-09-26T20:45:00.854Z,98359.91
2023-09-26T20:47:29.186Z,98361.25
2023-09-26T20:49:56.904Z,98360.44
2023-09-26T20:52:24.527Z,98366.38
2023-09-26T20:54:52.014Z,98361.81
2023-09-26T20:57:19.600Z,98364.22
2023-09-26T20:59:47.212Z,98369.56
2023-09-26T21:02:14.716Z,98370.28
2023-09-26T21:04:42.375Z,98370.81
2023-09-26T21:07:10.008Z,98372.13
2023-09-26T21:09:37.577Z,98373.72
2023-09-26T21:12:07.750Z,98372.88
2023-09-26T21:14:36.541Z,98377.47
2023-09-26T21:17:04.250Z,98376.38
2023-09-26T21:19:33.172Z,98371.28
2023-09-26T21:22:00.791Z,98371.31
2023-09-26T21:24:28.462Z,98373.22
2023-09-26T21:26:56.061Z,98368.41
2023-09-26T21:29:23.659Z,98375.16
2023-09-26T21:31:51.231Z,98375.16
2023-09-26T21:34:18.847Z,98372.19
2023-09-26T21:36:46.397Z,98377.34
2023-09-26T21:39:14.224Z,98382.19
2023-09-26T21:41:42.256Z,98376.53
2023-09-26T21:44:09.942Z,98382.41
2023-09-26T21:46:37.631Z,98379.13
2023-09-26T21:49:05.435Z,98377.25
2023-09-26T21:51:33.652Z,98384.25
2023-09-26T21:54:01.194Z,98374.78
2023-09-26T21:56:29.256Z,98376.94
2023-09-26T21:58:56.990Z,98379.38
2023-09-26T22:01:24.769Z,98384.72
2023-09-26T22:03:52.688Z,98378.53
2023-09-26T22:06:20.392Z,98387.41
2023-09-26T22:08:48.057Z,98386.09
2023-09-26T22:11:15.674Z,98384.19
2023-09-26T22:13:43.254Z,98387.22
2023-09-26T22:16:10.873Z,98384.53
2023-09-26T22:18:39.451Z,98378.28
2023-09-26T22:21:07.024Z,98382.34
2023-09-26T22:23:34.678Z,98382.63
2023-09-26T22:26:02.220Z,98372.13
2023-09-26T22:28:30.162Z,98375.91
2023-09-26T22:30:57.687Z,98375.34
2023-09-26T22:33:25.814Z,98374.25
2023-09-26T22:35:53.351Z,98372.91
2023-09-26T22:38:21.404Z,98368.00
2023-09-26T22:40:51.797Z,98370.19
2023-09-26T22:43:20.797Z,98365.34
2023-09-26T22:45:49.338Z,98366.16
2023-09-26T22:48:17.643Z,98361.28
2023-09-26T22:50:46.960Z,98359.13
2023-09-26T22:53:14.776Z,98359.13
2023-09-26T22:55:42.411Z,98360.16
2023-09-26T22:58:10.036Z,98361.81
2023-09-26T23:00:37.677Z,98362.06
2023-09-26T23:03:05.685Z,98362.53
2023-09-26T23:05:39.865Z,98362.81
2023-09-26T23:08:08.777Z,98357.88
2023-09-26T23:10:36.560Z,98361.59
2023-09-26T23:13:04.305Z,98369.75
2023-09-26T23:15:31.850Z,98368.47
2023-09-26T23:17:59.538Z,98364.88
2023-09-26T23:20:27.273Z,98365.75
2023-09-26T23:22:55.439Z,98357.41
2023-09-26T23:25:23.088Z,98354.69
2023-09-26T23:27:50.892Z,98354.38
2023-09-26T23:30:18.790Z,98350.91
2023-09-26T23:32:46.623Z,98353.34
2023-09-26T23:35:20.433Z,98356.84
2023-09-26T23:37:50.153Z,98351.13
2023-09-26T23:40:20.878Z,98354.91
2023-09-26T23:42:48.595Z,98350.91
2023-09-26T23:45:16.199Z,98352.88
2023-09-26T23:47:44.267Z,98358.88
2023-09-26T23:50:11.995Z,98352.41
2023-09-26T23:52:40.362Z,98362.06
2023-09-26T23:55:10.883Z,98353.63
2023-09-26T23:57:38.649Z,98349.31
